DLH4TR EDDF-LPMA
Flight info
| Callsign | DLH4TR |
|---|---|
| Flight time | N/A |
| Altitude | 34000 |
| Route | ANEKI2L/18 ANEKI Y163 HERBI Y164 MOPAN DCT LUTIX DCT BENOT DCT NEMOS DCT NINTU DCT MEBAK DCT REPSI DCT LERGA DCT MINSO DCT NARAK DCT AGN/N0412F270 DCT LATEK DCT PPN/N0461F350 DCT MIRPO DCT DGO DCT NEA L14 ADINO DCT PORTA DCT EXONA DCT NAKOS DCT GALPA DCT RAKUN RAKUN1P/23 |
| Aircraft | A21N/M-SDE2E3FGHIRWXY/LB1 |
Departure
| Time | N/A |
|---|---|
| Airport | Frankfurt Main Airport (EDDF) |
Arrival
| Time | 2026-05-04 18:23 |
|---|---|
| Airport | Cristiano Ronaldo International Airport (LPMA) |
| Time | Latitude | Longitude | Altitude | Speed | Heading |
|---|---|---|---|---|---|
| 2026-05-04 18:02 | 33.85615 | -15.36034 | 32040 ft | 421 kts | 242° |
| 2026-05-04 18:02 | 33.84046 | -15.39004 | 30659 ft | 421 kts | 233° |
| 2026-05-04 18:02 | 33.82173 | -15.41734 | 29000 ft | 424 kts | 230° |
| 2026-05-04 18:02 | 33.80239 | -15.44370 | 28084 ft | 411 kts | 230° |
| 2026-05-04 18:03 | 33.78399 | -15.46862 | 27670 ft | 387 kts | 230° |
| 2026-05-04 18:03 | 33.76673 | -15.49212 | 27190 ft | 375 kts | 230° |
| 2026-05-04 18:03 | 33.74961 | -15.51553 | 26669 ft | 371 kts | 230° |
| 2026-05-04 18:03 | 33.73269 | -15.53875 | 26143 ft | 366 kts | 230° |
| 2026-05-04 18:04 | 33.71602 | -15.56164 | 25656 ft | 362 kts | 230° |
| 2026-05-04 18:04 | 33.69952 | -15.58431 | 25156 ft | 359 kts | 230° |
| 2026-05-04 18:04 | 33.66685 | -15.62918 | 24160 ft | 354 kts | 230° |
| 2026-05-04 18:05 | 33.65068 | -15.65138 | 23657 ft | 352 kts | 230° |
| 2026-05-04 18:05 | 33.63457 | -15.67348 | 23087 ft | 350 kts | 230° |
| 2026-05-04 18:05 | 33.61861 | -15.69536 | 22585 ft | 347 kts | 230° |
| 2026-05-04 18:05 | 33.60272 | -15.71714 | 22094 ft | 346 kts | 230° |
| 2026-05-04 18:06 | 33.57135 | -15.76009 | 21127 ft | 343 kts | 229° |
| 2026-05-04 18:06 | 33.55520 | -15.78155 | 20698 ft | 341 kts | 227° |
| 2026-05-04 18:06 | 33.53851 | -15.80170 | 20255 ft | 340 kts | 225° |
| 2026-05-04 18:07 | 33.52193 | -15.82117 | 19832 ft | 336 kts | 225° |
| 2026-05-04 18:07 | 33.50526 | -15.84069 | 19410 ft | 335 kts | 225° |
| 2026-05-04 18:07 | 33.48858 | -15.86019 | 18967 ft | 334 kts | 225° |
| 2026-05-04 18:07 | 33.47201 | -15.87957 | 18551 ft | 331 kts | 225° |
| 2026-05-04 18:08 | 33.45562 | -15.89875 | 18096 ft | 328 kts | 224° |
| 2026-05-04 18:08 | 33.43928 | -15.91788 | 17665 ft | 330 kts | 225° |
| 2026-05-04 18:08 | 33.42282 | -15.93714 | 17237 ft | 331 kts | 224° |
| 2026-05-04 18:08 | 33.40634 | -15.95640 | 16815 ft | 331 kts | 224° |
| 2026-05-04 18:09 | 33.37358 | -15.99465 | 15985 ft | 328 kts | 224° |
| 2026-05-04 18:09 | 33.34106 | -16.03256 | 15143 ft | 323 kts | 224° |
| 2026-05-04 18:10 | 33.32499 | -16.05130 | 14735 ft | 322 kts | 224° |
| 2026-05-04 18:10 | 33.30895 | -16.07000 | 14324 ft | 321 kts | 224° |
| 2026-05-04 18:10 | 33.29302 | -16.08853 | 13906 ft | 318 kts | 224° |
| 2026-05-04 18:10 | 33.27721 | -16.10694 | 13478 ft | 316 kts | 224° |
| 2026-05-04 18:11 | 33.26170 | -16.12496 | 13064 ft | 314 kts | 224° |
| 2026-05-04 18:11 | 33.24610 | -16.14310 | 12669 ft | 312 kts | 224° |
| 2026-05-04 18:11 | 33.23059 | -16.16114 | 12281 ft | 311 kts | 224° |
| 2026-05-04 18:11 | 33.21517 | -16.17908 | 11885 ft | 309 kts | 224° |
| 2026-05-04 18:12 | 33.19984 | -16.19688 | 11500 ft | 307 kts | 223° |
| 2026-05-04 18:12 | 33.18457 | -16.21461 | 11102 ft | 305 kts | 224° |
| 2026-05-04 18:12 | 33.16943 | -16.23218 | 10723 ft | 302 kts | 224° |
| 2026-05-04 18:12 | 33.15438 | -16.24963 | 10341 ft | 300 kts | 223° |
| 2026-05-04 18:13 | 33.13986 | -16.26648 | 10242 ft | 283 kts | 223° |
| 2026-05-04 18:13 | 33.12613 | -16.28244 | 10150 ft | 270 kts | 224° |
| 2026-05-04 18:13 | 33.09993 | -16.31289 | 9623 ft | 261 kts | 224° |
| 2026-05-04 18:14 | 33.08687 | -16.32802 | 9331 ft | 261 kts | 224° |
| 2026-05-04 18:14 | 33.07388 | -16.34306 | 9045 ft | 260 kts | 223° |
| 2026-05-04 18:14 | 33.06087 | -16.35811 | 8765 ft | 264 kts | 223° |
| 2026-05-04 18:15 | 33.03319 | -16.38944 | 8327 ft | 276 kts | 222° |
| 2026-05-04 18:15 | 33.00509 | -16.42099 | 7221 ft | 278 kts | 223° |
| 2026-05-04 18:15 | 32.99114 | -16.43682 | 6753 ft | 276 kts | 223° |
| 2026-05-04 18:16 | 32.97748 | -16.45235 | 6276 ft | 274 kts | 223° |
| 2026-05-04 18:16 | 32.96380 | -16.46795 | 5781 ft | 272 kts | 223° |
| 2026-05-04 18:16 | 32.95018 | -16.48349 | 5375 ft | 269 kts | 222° |
| 2026-05-04 18:17 | 32.92352 | -16.51374 | 4480 ft | 267 kts | 223° |
| 2026-05-04 18:17 | 32.91036 | -16.52884 | 4219 ft | 256 kts | 223° |
| 2026-05-04 18:17 | 32.88603 | -16.55677 | 3918 ft | 230 kts | 223° |
| 2026-05-04 18:18 | 32.87473 | -16.56974 | 3718 ft | 222 kts | 223° |
| 2026-05-04 18:18 | 32.86369 | -16.58238 | 3406 ft | 219 kts | 223° |
| 2026-05-04 18:18 | 32.85277 | -16.59486 | 3085 ft | 217 kts | 222° |
| 2026-05-04 18:18 | 32.84191 | -16.60725 | 2735 ft | 216 kts | 222° |
| 2026-05-04 18:19 | 32.82033 | -16.63181 | 2121 ft | 212 kts | 223° |
| 2026-05-04 18:19 | 32.80976 | -16.64385 | 2056 ft | 210 kts | 222° |
| 2026-05-04 18:19 | 32.79943 | -16.65561 | 2076 ft | 199 kts | 223° |
| 2026-05-04 18:20 | 32.78960 | -16.66682 | 2063 ft | 194 kts | 223° |
| 2026-05-04 18:20 | 32.78003 | -16.67772 | 2062 ft | 181 kts | 223° |
| 2026-05-04 18:20 | 32.77165 | -16.68742 | 2028 ft | 159 kts | 224° |
| 2026-05-04 18:20 | 32.76421 | -16.69656 | 1793 ft | 148 kts | 226° |
| 2026-05-04 18:21 | 32.75765 | -16.70475 | 1670 ft | 129 kts | 227° |
| 2026-05-04 18:21 | 32.75145 | -16.71229 | 1422 ft | 127 kts | 225° |
| 2026-05-04 18:21 | 32.74523 | -16.71977 | 1291 ft | 128 kts | 226° |
| 2026-05-04 18:21 | 32.73882 | -16.72713 | 1132 ft | 127 kts | 222° |
| 2026-05-04 18:22 | 32.73239 | -16.73435 | 998 ft | 128 kts | 221° |
| 2026-05-04 18:22 | 32.72596 | -16.74168 | 807 ft | 127 kts | 221° |
| 2026-05-04 18:22 | 32.71965 | -16.74911 | 648 ft | 127 kts | 221° |
| 2026-05-04 18:22 | 32.71335 | -16.75634 | 468 ft | 129 kts | 221° |
| 2026-05-04 18:23 | 32.70696 | -16.76384 | 268 ft | 128 kts | 221° |
| 2026-05-04 18:23 | 32.70065 | -16.77124 | 200 ft | 113 kts | 224° |
| 2026-05-04 18:23 | 32.69856 | -16.77365 | 191 ft | 0 kts | 225° |